sensor_id;sensor_type;location;lat;lon;timestamp;P1;durP1;ratioP1;P2;durP2;ratioP2
29712;SDS011;16623;53.632;10.016;2024-02-26T00:01:25;22.88;;;11.73;;
29712;SDS011;16623;53.632;10.016;2024-02-26T00:03:52;22.83;;;12.15;;
29712;SDS011;16623;53.632;10.016;2024-02-26T00:06:19;27.17;;;13.13;;
29712;SDS011;16623;53.632;10.016;2024-02-26T00:08:44;29.48;;;12.93;;
29712;SDS011;16623;53.632;10.016;2024-02-26T00:11:10;29.15;;;15.45;;
29712;SDS011;16623;53.632;10.016;2024-02-26T00:13:36;27.58;;;14.13;;
29712;SDS011;16623;53.632;10.016;2024-02-26T00:16:02;25.88;;;12.50;;
29712;SDS011;16623;53.632;10.016;2024-02-26T00:18:28;28.27;;;12.80;;
29712;SDS011;16623;53.632;10.016;2024-02-26T00:20:54;26.25;;;11.88;;
29712;SDS011;16623;53.632;10.016;2024-02-26T00:23:19;20.35;;;11.73;;
29712;SDS011;16623;53.632;10.016;2024-02-26T00:25:45;22.25;;;11.90;;
29712;SDS011;16623;53.632;10.016;2024-02-26T00:28:11;16.40;;;10.38;;
29712;SDS011;16623;53.632;10.016;2024-02-26T00:30:38;22.10;;;12.18;;
29712;SDS011;16623;53.632;10.016;2024-02-26T00:33:04;17.83;;;10.43;;
29712;SDS011;16623;53.632;10.016;2024-02-26T00:35:29;17.83;;;11.25;;
29712;SDS011;16623;53.632;10.016;2024-02-26T00:37:54;18.17;;;10.75;;
29712;SDS011;16623;53.632;10.016;2024-02-26T00:40:20;16.58;;;10.32;;
29712;SDS011;16623;53.632;10.016;2024-02-26T00:42:45;21.10;;;12.10;;
29712;SDS011;16623;53.632;10.016;2024-02-26T00:45:12;17.77;;;10.00;;
29712;SDS011;16623;53.632;10.016;2024-02-26T00:47:39;17.95;;;10.63;;
29712;SDS011;16623;53.632;10.016;2024-02-26T00:50:06;20.35;;;10.27;;
29712;SDS011;16623;53.632;10.016;2024-02-26T00:52:33;13.82;;;9.05;;
29712;SDS011;16623;53.632;10.016;2024-02-26T00:54:59;15.13;;;9.93;;
29712;SDS011;16623;53.632;10.016;2024-02-26T00:57:25;15.40;;;8.98;;
29712;SDS011;16623;53.632;10.016;2024-02-26T00:59:50;16.92;;;10.82;;
29712;SDS011;16623;53.632;10.016;2024-02-26T01:02:16;16.42;;;10.00;;
29712;SDS011;16623;53.632;10.016;2024-02-26T01:04:44;18.95;;;10.60;;
29712;SDS011;16623;53.632;10.016;2024-02-26T01:07:09;18.00;;;9.65;;
29712;SDS011;16623;53.632;10.016;2024-02-26T01:09:35;18.50;;;9.25;;
29712;SDS011;16623;53.632;10.016;2024-02-26T01:12:00;19.13;;;10.77;;
29712;SDS011;16623;53.632;10.016;2024-02-26T01:14:27;18.92;;;11.57;;
29712;SDS011;16623;53.632;10.016;2024-02-26T01:16:53;20.00;;;11.65;;
29712;SDS011;16623;53.632;10.016;2024-02-26T01:19:18;18.98;;;11.32;;
29712;SDS011;16623;53.632;10.016;2024-02-26T01:21:44;19.00;;;11.73;;
29712;SDS011;16623;53.632;10.016;2024-02-26T01:24:10;23.48;;;13.32;;
29712;SDS011;16623;53.632;10.016;2024-02-26T01:26:35;19.90;;;12.75;;
29712;SDS011;16623;53.632;10.016;2024-02-26T01:29:01;23.17;;;11.88;;
29712;SDS011;16623;53.632;10.016;2024-02-26T01:31:27;20.15;;;13.52;;
29712;SDS011;16623;53.632;10.016;2024-02-26T01:33:52;20.38;;;10.95;;
29712;SDS011;16623;53.632;10.016;2024-02-26T01:36:18;19.55;;;12.43;;
29712;SDS011;16623;53.632;10.016;2024-02-26T01:38:43;20.77;;;12.60;;
29712;SDS011;16623;53.632;10.016;2024-02-26T01:41:09;20.77;;;12.65;;
29712;SDS011;16623;53.632;10.016;2024-02-26T01:43:34;19.67;;;12.68;;
29712;SDS011;16623;53.632;10.016;2024-02-26T01:46:00;22.83;;;12.82;;
29712;SDS011;16623;53.632;10.016;2024-02-26T01:48:25;22.35;;;12.30;;
29712;SDS011;16623;53.632;10.016;2024-02-26T01:50:51;22.33;;;12.57;;
29712;SDS011;16623;53.632;10.016;2024-02-26T01:53:17;22.17;;;12.13;;
29712;SDS011;16623;53.632;10.016;2024-02-26T01:55:43;20.25;;;12.82;;
29712;SDS011;16623;53.632;10.016;2024-02-26T01:58:10;21.52;;;12.90;;
29712;SDS011;16623;53.632;10.016;2024-02-26T02:00:37;20.67;;;12.93;;
29712;SDS011;16623;53.632;10.016;2024-02-26T02:03:03;21.35;;;12.55;;
29712;SDS011;16623;53.632;10.016;2024-02-26T02:05:30;21.27;;;12.57;;
29712;SDS011;16623;53.632;10.016;2024-02-26T02:07:56;21.92;;;13.07;;
29712;SDS011;16623;53.632;10.016;2024-02-26T02:10:22;22.08;;;12.55;;
29712;SDS011;16623;53.632;10.016;2024-02-26T02:12:50;23.83;;;14.10;;
29712;SDS011;16623;53.632;10.016;2024-02-26T02:15:16;22.80;;;13.45;;
29712;SDS011;16623;53.632;10.016;2024-02-26T02:17:41;23.70;;;13.05;;
29712;SDS011;16623;53.632;10.016;2024-02-26T02:20:15;21.48;;;12.85;;
29712;SDS011;16623;53.632;10.016;2024-02-26T02:22:42;24.25;;;13.15;;
29712;SDS011;16623;53.632;10.016;2024-02-26T02:25:08;26.45;;;13.45;;
29712;SDS011;16623;53.632;10.016;2024-02-26T02:27:33;20.92;;;13.00;;
29712;SDS011;16623;53.632;10.016;2024-02-26T02:29:59;25.58;;;13.40;;
29712;SDS011;16623;53.632;10.016;2024-02-26T02:32:26;21.58;;;13.15;;
29712;SDS011;16623;53.632;10.016;2024-02-26T02:34:52;23.05;;;13.85;;
29712;SDS011;16623;53.632;10.016;2024-02-26T02:37:18;20.23;;;12.32;;
29712;SDS011;16623;53.632;10.016;2024-02-26T02:39:43;24.00;;;14.40;;
29712;SDS011;16623;53.632;10.016;2024-02-26T02:42:09;28.13;;;14.02;;
29712;SDS011;16623;53.632;10.016;2024-02-26T02:44:35;22.50;;;14.20;;
29712;SDS011;16623;53.632;10.016;2024-02-26T02:47:01;22.75;;;12.70;;
29712;SDS011;16623;53.632;10.016;2024-02-26T02:49:26;23.17;;;13.18;;
29712;SDS011;16623;53.632;10.016;2024-02-26T02:51:52;20.80;;;13.27;;
29712;SDS011;16623;53.632;10.016;2024-02-26T02:54:19;23.17;;;13.43;;
29712;SDS011;16623;53.632;10.016;2024-02-26T02:56:46;23.67;;;12.35;;
29712;SDS011;16623;53.632;10.016;2024-02-26T02:59:11;21.52;;;12.77;;
29712;SDS011;16623;53.632;10.016;2024-02-26T03:01:37;21.90;;;12.38;;
29712;SDS011;16623;53.632;10.016;2024-02-26T03:04:03;20.73;;;13.10;;
29712;SDS011;16623;53.632;10.016;2024-02-26T03:06:28;22.35;;;13.43;;
29712;SDS011;16623;53.632;10.016;2024-02-26T03:08:54;24.70;;;14.18;;
29712;SDS011;16623;53.632;10.016;2024-02-26T03:11:20;22.20;;;12.60;;
29712;SDS011;16623;53.632;10.016;2024-02-26T03:13:45;22.55;;;13.15;;
29712;SDS011;16623;53.632;10.016;2024-02-26T03:16:11;24.20;;;14.07;;
29712;SDS011;16623;53.632;10.016;2024-02-26T03:18:39;27.75;;;16.38;;
29712;SDS011;16623;53.632;10.016;2024-02-26T03:21:05;25.60;;;15.38;;
29712;SDS011;16623;53.632;10.016;2024-02-26T03:23:31;24.67;;;14.77;;
29712;SDS011;16623;53.632;10.016;2024-02-26T03:25:57;26.80;;;15.32;;
29712;SDS011;16623;53.632;10.016;2024-02-26T03:28:23;26.20;;;14.55;;
29712;SDS011;16623;53.632;10.016;2024-02-26T03:30:48;26.38;;;15.57;;
29712;SDS011;16623;53.632;10.016;2024-02-26T03:33:14;27.95;;;15.68;;
29712;SDS011;16623;53.632;10.016;2024-02-26T03:35:39;28.15;;;15.13;;
29712;SDS011;16623;53.632;10.016;2024-02-26T03:38:05;30.23;;;15.45;;
29712;SDS011;16623;53.632;10.016;2024-02-26T03:40:31;29.52;;;16.35;;
29712;SDS011;16623;53.632;10.016;2024-02-26T03:42:57;29.08;;;16.17;;
29712;SDS011;16623;53.632;10.016;2024-02-26T03:45:23;27.45;;;15.63;;
29712;SDS011;16623;53.632;10.016;2024-02-26T03:47:48;34.00;;;15.63;;
29712;SDS011;16623;53.632;10.016;2024-02-26T03:50:14;27.83;;;15.95;;
29712;SDS011;16623;53.632;10.016;2024-02-26T03:52:39;25.58;;;14.48;;
29712;SDS011;16623;53.632;10.016;2024-02-26T03:55:05;30.60;;;17.25;;
29712;SDS011;16623;53.632;10.016;2024-02-26T03:57:31;32.42;;;16.23;;
29712;SDS011;16623;53.632;10.016;2024-02-26T03:59:56;30.48;;;17.33;;
29712;SDS011;16623;53.632;10.016;2024-02-26T04:02:22;28.90;;;16.65;;
29712;SDS011;16623;53.632;10.016;2024-02-26T04:04:48;28.63;;;15.98;;
29712;SDS011;16623;53.632;10.016;2024-02-26T04:07:14;32.13;;;16.55;;
29712;SDS011;16623;53.632;10.016;2024-02-26T04:09:39;26.80;;;14.57;;
29712;SDS011;16623;53.632;10.016;2024-02-26T04:12:05;24.90;;;13.55;;
29712;SDS011;16623;53.632;10.016;2024-02-26T04:14:31;26.80;;;15.88;;
29712;SDS011;16623;53.632;10.016;2024-02-26T04:16:56;25.77;;;14.73;;
29712;SDS011;16623;53.632;10.016;2024-02-26T04:19:22;24.30;;;14.73;;
29712;SDS011;16623;53.632;10.016;2024-02-26T04:21:47;26.35;;;14.57;;
29712;SDS011;16623;53.632;10.016;2024-02-26T04:24:13;30.42;;;16.63;;
29712;SDS011;16623;53.632;10.016;2024-02-26T04:26:38;26.63;;;15.77;;
29712;SDS011;16623;53.632;10.016;2024-02-26T04:29:04;27.08;;;15.05;;
29712;SDS011;16623;53.632;10.016;2024-02-26T04:31:29;27.35;;;14.55;;
29712;SDS011;16623;53.632;10.016;2024-02-26T04:33:57;27.52;;;15.77;;
29712;SDS011;16623;53.632;10.016;2024-02-26T04:36:23;30.48;;;15.20;;
29712;SDS011;16623;53.632;10.016;2024-02-26T04:38:51;25.58;;;14.57;;
29712;SDS011;16623;53.632;10.016;2024-02-26T04:41:16;25.83;;;14.23;;
29712;SDS011;16623;53.632;10.016;2024-02-26T04:43:42;24.20;;;12.93;;
29712;SDS011;16623;53.632;10.016;2024-02-26T04:46:08;25.70;;;14.50;;
29712;SDS011;16623;53.632;10.016;2024-02-26T04:48:34;22.33;;;13.80;;
29712;SDS011;16623;53.632;10.016;2024-02-26T04:51:00;24.88;;;14.48;;
29712;SDS011;16623;53.632;10.016;2024-02-26T04:53:26;24.98;;;15.38;;
29712;SDS011;16623;53.632;10.016;2024-02-26T04:55:51;24.95;;;14.18;;
29712;SDS011;16623;53.632;10.016;2024-02-26T04:58:17;28.58;;;15.07;;
29712;SDS011;16623;53.632;10.016;2024-02-26T05:00:42;25.33;;;15.35;;
29712;SDS011;16623;53.632;10.016;2024-02-26T05:03:08;26.10;;;14.82;;
29712;SDS011;16623;53.632;10.016;2024-02-26T05:05:38;22.67;;;13.23;;
29712;SDS011;16623;53.632;10.016;2024-02-26T05:08:08;25.67;;;14.57;;
29712;SDS011;16623;53.632;10.016;2024-02-26T05:10:33;25.42;;;13.77;;
29712;SDS011;16623;53.632;10.016;2024-02-26T05:12:59;27.73;;;14.63;;
29712;SDS011;16623;53.632;10.016;2024-02-26T05:15:25;27.05;;;14.10;;
29712;SDS011;16623;53.632;10.016;2024-02-26T05:17:50;24.52;;;14.15;;
29712;SDS011;16623;53.632;10.016;2024-02-26T05:20:16;23.60;;;13.80;;
29712;SDS011;16623;53.632;10.016;2024-02-26T05:22:41;24.02;;;13.90;;
29712;SDS011;16623;53.632;10.016;2024-02-26T05:25:07;25.73;;;13.90;;
29712;SDS011;16623;53.632;10.016;2024-02-26T05:27:33;22.00;;;13.68;;
29712;SDS011;16623;53.632;10.016;2024-02-26T05:29:58;24.38;;;14.00;;
29712;SDS011;16623;53.632;10.016;2024-02-26T05:32:24;24.65;;;14.35;;
29712;SDS011;16623;53.632;10.016;2024-02-26T05:34:49;24.30;;;13.77;;
29712;SDS011;16623;53.632;10.016;2024-02-26T05:37:15;24.05;;;14.05;;
29712;SDS011;16623;53.632;10.016;2024-02-26T05:39:40;23.42;;;13.38;;
29712;SDS011;16623;53.632;10.016;2024-02-26T05:42:06;25.42;;;14.38;;
29712;SDS011;16623;53.632;10.016;2024-02-26T05:44:33;22.05;;;13.63;;
29712;SDS011;16623;53.632;10.016;2024-02-26T05:46:59;25.42;;;14.65;;
29712;SDS011;16623;53.632;10.016;2024-02-26T05:49:24;22.70;;;13.50;;
29712;SDS011;16623;53.632;10.016;2024-02-26T05:51:50;20.10;;;12.13;;
29712;SDS011;16623;53.632;10.016;2024-02-26T05:54:16;23.55;;;13.85;;
29712;SDS011;16623;53.632;10.016;2024-02-26T05:56:41;23.02;;;13.90;;
29712;SDS011;16623;53.632;10.016;2024-02-26T05:59:07;22.90;;;13.50;;
29712;SDS011;16623;53.632;10.016;2024-02-26T06:01:33;24.67;;;14.30;;
29712;SDS011;16623;53.632;10.016;2024-02-26T06:03:58;22.40;;;13.35;;
29712;SDS011;16623;53.632;10.016;2024-02-26T06:06:24;23.25;;;13.35;;
29712;SDS011;16623;53.632;10.016;2024-02-26T06:08:50;25.58;;;14.02;;
29712;SDS011;16623;53.632;10.016;2024-02-26T06:11:15;25.20;;;14.40;;
29712;SDS011;16623;53.632;10.016;2024-02-26T06:13:41;23.67;;;14.00;;
29712;SDS011;16623;53.632;10.016;2024-02-26T06:16:07;25.38;;;14.23;;
29712;SDS011;16623;53.632;10.016;2024-02-26T06:18:33;27.17;;;13.88;;
29712;SDS011;16623;53.632;10.016;2024-02-26T06:20:59;23.90;;;12.85;;
29712;SDS011;16623;53.632;10.016;2024-02-26T06:23:25;22.83;;;13.38;;
29712;SDS011;16623;53.632;10.016;2024-02-26T06:25:51;21.58;;;12.80;;
29712;SDS011;16623;53.632;10.016;2024-02-26T06:28:17;26.90;;;16.10;;
29712;SDS011;16623;53.632;10.016;2024-02-26T06:30:42;27.83;;;14.70;;
29712;SDS011;16623;53.632;10.016;2024-02-26T06:33:08;27.13;;;14.98;;
29712;SDS011;16623;53.632;10.016;2024-02-26T06:35:34;27.00;;;15.32;;
29712;SDS011;16623;53.632;10.016;2024-02-26T06:37:59;22.75;;;14.50;;
29712;SDS011;16623;53.632;10.016;2024-02-26T06:40:25;23.52;;;13.35;;
29712;SDS011;16623;53.632;10.016;2024-02-26T06:42:51;21.35;;;9.82;;
29712;SDS011;16623;53.632;10.016;2024-02-26T06:45:16;25.02;;;14.23;;
29712;SDS011;16623;53.632;10.016;2024-02-26T06:47:43;24.75;;;12.63;;
29712;SDS011;16623;53.632;10.016;2024-02-26T06:50:08;27.30;;;14.48;;
29712;SDS011;16623;53.632;10.016;2024-02-26T06:52:36;25.80;;;14.43;;
29712;SDS011;16623;53.632;10.016;2024-02-26T06:55:02;28.00;;;14.15;;
29712;SDS011;16623;53.632;10.016;2024-02-26T06:57:27;25.58;;;14.23;;
29712;SDS011;16623;53.632;10.016;2024-02-26T06:59:53;27.52;;;14.85;;
29712;SDS011;16623;53.632;10.016;2024-02-26T07:02:19;25.70;;;14.85;;
29712;SDS011;16623;53.632;10.016;2024-02-26T07:04:44;28.25;;;14.52;;
29712;SDS011;16623;53.632;10.016;2024-02-26T07:07:10;32.22;;;15.38;;
29712;SDS011;16623;53.632;10.016;2024-02-26T07:09:35;27.52;;;14.32;;
29712;SDS011;16623;53.632;10.016;2024-02-26T07:12:01;31.13;;;15.20;;
29712;SDS011;16623;53.632;10.016;2024-02-26T07:14:27;29.15;;;15.45;;
29712;SDS011;16623;53.632;10.016;2024-02-26T07:16:53;26.80;;;14.57;;
29712;SDS011;16623;53.632;10.016;2024-02-26T07:19:18;30.30;;;16.77;;
29712;SDS011;16623;53.632;10.016;2024-02-26T07:21:44;29.40;;;15.50;;
29712;SDS011;16623;53.632;10.016;2024-02-26T07:24:09;31.48;;;14.27;;
29712;SDS011;16623;53.632;10.016;2024-02-26T07:26:35;31.35;;;15.20;;
29712;SDS011;16623;53.632;10.016;2024-02-26T07:29:00;27.02;;;14.95;;
29712;SDS011;16623;53.632;10.016;2024-02-26T07:31:26;36.80;;;17.08;;
29712;SDS011;16623;53.632;10.016;2024-02-26T07:33:51;30.67;;;15.65;;
29712;SDS011;16623;53.632;10.016;2024-02-26T07:36:17;33.50;;;17.23;;
29712;SDS011;16623;53.632;10.016;2024-02-26T07:38:42;31.08;;;15.63;;
29712;SDS011;16623;53.632;10.016;2024-02-26T07:41:08;32.28;;;16.98;;
29712;SDS011;16623;53.632;10.016;2024-02-26T07:43:34;34.72;;;16.85;;
29712;SDS011;16623;53.632;10.016;2024-02-26T07:45:59;36.63;;;17.13;;
29712;SDS011;16623;53.632;10.016;2024-02-26T07:48:25;33.90;;;16.30;;
29712;SDS011;16623;53.632;10.016;2024-02-26T07:50:51;37.80;;;18.45;;
29712;SDS011;16623;53.632;10.016;2024-02-26T07:53:16;41.88;;;18.63;;
29712;SDS011;16623;53.632;10.016;2024-02-26T07:55:42;37.22;;;17.30;;
29712;SDS011;16623;53.632;10.016;2024-02-26T07:58:07;40.03;;;19.08;;
29712;SDS011;16623;53.632;10.016;2024-02-26T08:00:33;34.28;;;16.70;;
29712;SDS011;16623;53.632;10.016;2024-02-26T08:02:58;37.40;;;16.85;;
29712;SDS011;16623;53.632;10.016;2024-02-26T08:05:24;39.55;;;19.23;;
29712;SDS011;16623;53.632;10.016;2024-02-26T08:07:50;37.22;;;18.48;;
29712;SDS011;16623;53.632;10.016;2024-02-26T08:10:16;40.83;;;17.85;;
29712;SDS011;16623;53.632;10.016;2024-02-26T08:12:41;41.83;;;19.17;;
29712;SDS011;16623;53.632;10.016;2024-02-26T08:15:07;36.63;;;18.45;;
29712;SDS011;16623;53.632;10.016;2024-02-26T08:17:33;36.75;;;16.75;;
29712;SDS011;16623;53.632;10.016;2024-02-26T08:19:59;38.97;;;17.65;;
29712;SDS011;16623;53.632;10.016;2024-02-26T08:22:25;36.72;;;17.85;;
29712;SDS011;16623;53.632;10.016;2024-02-26T08:24:50;32.47;;;16.45;;
29712;SDS011;16623;53.632;10.016;2024-02-26T08:27:16;35.70;;;15.90;;
29712;SDS011;16623;53.632;10.016;2024-02-26T08:29:42;37.30;;;17.77;;
29712;SDS011;16623;53.632;10.016;2024-02-26T08:32:08;32.45;;;15.75;;
29712;SDS011;16623;53.632;10.016;2024-02-26T08:34:34;37.50;;;18.48;;
29712;SDS011;16623;53.632;10.016;2024-02-26T08:36:59;35.03;;;16.33;;
29712;SDS011;16623;53.632;10.016;2024-02-26T08:39:25;32.70;;;15.45;;
29712;SDS011;16623;53.632;10.016;2024-02-26T08:41:51;30.05;;;12.73;;
29712;SDS011;16623;53.632;10.016;2024-02-26T08:44:16;36.05;;;15.43;;
29712;SDS011;16623;53.632;10.016;2024-02-26T08:46:42;43.38;;;17.10;;
29712;SDS011;16623;53.632;10.016;2024-02-26T08:49:07;33.45;;;16.38;;
29712;SDS011;16623;53.632;10.016;2024-02-26T08:51:33;39.38;;;17.00;;
29712;SDS011;16623;53.632;10.016;2024-02-26T08:53:58;38.05;;;16.23;;
29712;SDS011;16623;53.632;10.016;2024-02-26T08:56:24;39.13;;;18.25;;
29712;SDS011;16623;53.632;10.016;2024-02-26T08:58:50;35.58;;;16.90;;
29712;SDS011;16623;53.632;10.016;2024-02-26T09:01:18;46.90;;;17.13;;
29712;SDS011;16623;53.632;10.016;2024-02-26T09:03:44;41.55;;;19.30;;
29712;SDS011;16623;53.632;10.016;2024-02-26T09:06:09;37.95;;;18.30;;
29712;SDS011;16623;53.632;10.016;2024-02-26T09:08:36;42.58;;;17.80;;
29712;SDS011;16623;53.632;10.016;2024-02-26T09:11:02;39.22;;;17.83;;
29712;SDS011;16623;53.632;10.016;2024-02-26T09:13:28;35.60;;;16.52;;
29712;SDS011;16623;53.632;10.016;2024-02-26T09:15:54;46.75;;;19.63;;
29712;SDS011;16623;53.632;10.016;2024-02-26T09:18:20;25.25;;;12.90;;
29712;SDS011;16623;53.632;10.016;2024-02-26T09:20:45;35.90;;;15.43;;
29712;SDS011;16623;53.632;10.016;2024-02-26T09:23:11;52.10;;;21.33;;
29712;SDS011;16623;53.632;10.016;2024-02-26T09:25:37;46.13;;;20.50;;
29712;SDS011;16623;53.632;10.016;2024-02-26T09:28:02;44.30;;;20.27;;
29712;SDS011;16623;53.632;10.016;2024-02-26T09:30:28;46.13;;;20.02;;
29712;SDS011;16623;53.632;10.016;2024-02-26T09:32:54;33.83;;;13.90;;
29712;SDS011;16623;53.632;10.016;2024-02-26T09:35:19;48.47;;;20.80;;
29712;SDS011;16623;53.632;10.016;2024-02-26T09:37:46;44.65;;;19.35;;
29712;SDS011;16623;53.632;10.016;2024-02-26T09:40:14;42.22;;;19.33;;
29712;SDS011;16623;53.632;10.016;2024-02-26T09:42:42;49.78;;;21.45;;
29712;SDS011;16623;53.632;10.016;2024-02-26T09:45:10;46.03;;;19.30;;
29712;SDS011;16623;53.632;10.016;2024-02-26T09:47:42;43.67;;;19.63;;
29712;SDS011;16623;53.632;10.016;2024-02-26T09:50:09;46.80;;;18.60;;
29712;SDS011;16623;53.632;10.016;2024-02-26T09:52:37;37.92;;;16.25;;
29712;SDS011;16623;53.632;10.016;2024-02-26T09:55:04;47.45;;;19.75;;
29712;SDS011;16623;53.632;10.016;2024-02-26T09:57:33;42.13;;;18.60;;
29712;SDS011;16623;53.632;10.016;2024-02-26T09:59:59;41.60;;;18.50;;
29712;SDS011;16623;53.632;10.016;2024-02-26T10:02:28;41.65;;;18.17;;
29712;SDS011;16623;53.632;10.016;2024-02-26T10:04:56;41.80;;;17.08;;
29712;SDS011;16623;53.632;10.016;2024-02-26T10:07:26;47.33;;;20.00;;
29712;SDS011;16623;53.632;10.016;2024-02-26T10:09:54;31.33;;;13.95;;
29712;SDS011;16623;53.632;10.016;2024-02-26T10:12:20;42.20;;;18.25;;
29712;SDS011;16623;53.632;10.016;2024-02-26T10:14:46;51.25;;;19.10;;
29712;SDS011;16623;53.632;10.016;2024-02-26T10:17:12;47.83;;;19.83;;
29712;SDS011;16623;53.632;10.016;2024-02-26T10:19:37;48.42;;;19.23;;
29712;SDS011;16623;53.632;10.016;2024-02-26T10:22:03;39.95;;;17.05;;
29712;SDS011;16623;53.632;10.016;2024-02-26T10:24:29;41.92;;;18.83;;
29712;SDS011;16623;53.632;10.016;2024-02-26T10:26:55;43.90;;;20.10;;
29712;SDS011;16623;53.632;10.016;2024-02-26T10:29:23;44.08;;;18.45;;
29712;SDS011;16623;53.632;10.016;2024-02-26T10:31:50;37.15;;;17.13;;
29712;SDS011;16623;53.632;10.016;2024-02-26T10:34:16;47.75;;;19.90;;
29712;SDS011;16623;53.632;10.016;2024-02-26T10:36:42;50.92;;;20.05;;
29712;SDS011;16623;53.632;10.016;2024-02-26T10:39:09;46.35;;;21.20;;
29712;SDS011;16623;53.632;10.016;2024-02-26T10:41:36;49.63;;;19.58;;
29712;SDS011;16623;53.632;10.016;2024-02-26T10:44:03;47.85;;;16.42;;
29712;SDS011;16623;53.632;10.016;2024-02-26T10:46:28;46.28;;;18.38;;
29712;SDS011;16623;53.632;10.016;2024-02-26T10:48:54;43.40;;;19.52;;
29712;SDS011;16623;53.632;10.016;2024-02-26T10:51:22;41.17;;;19.33;;
29712;SDS011;16623;53.632;10.016;2024-02-26T10:53:54;44.45;;;19.80;;
29712;SDS011;16623;53.632;10.016;2024-02-26T10:56:23;39.25;;;18.42;;
29712;SDS011;16623;53.632;10.016;2024-02-26T10:58:52;43.88;;;20.00;;
29712;SDS011;16623;53.632;10.016;2024-02-26T11:01:18;48.10;;;20.20;;
29712;SDS011;16623;53.632;10.016;2024-02-26T11:03:46;44.00;;;19.17;;
29712;SDS011;16623;53.632;10.016;2024-02-26T11:06:13;40.38;;;19.38;;
29712;SDS011;16623;53.632;10.016;2024-02-26T11:08:40;36.50;;;16.65;;
29712;SDS011;16623;53.632;10.016;2024-02-26T11:11:06;38.72;;;18.15;;
29712;SDS011;16623;53.632;10.016;2024-02-26T11:13:32;44.53;;;19.25;;
29712;SDS011;16623;53.632;10.016;2024-02-26T11:16:03;36.50;;;18.13;;
29712;SDS011;16623;53.632;10.016;2024-02-26T11:18:31;34.80;;;17.42;;
29712;SDS011;16623;53.632;10.016;2024-02-26T11:20:57;32.00;;;15.50;;
29712;SDS011;16623;53.632;10.016;2024-02-26T11:23:24;28.80;;;13.63;;
29712;SDS011;16623;53.632;10.016;2024-02-26T11:25:50;30.48;;;14.77;;
29712;SDS011;16623;53.632;10.016;2024-02-26T11:28:18;22.10;;;10.70;;
29712;SDS011;16623;53.632;10.016;2024-02-26T11:30:46;28.27;;;16.35;;
29712;SDS011;16623;53.632;10.016;2024-02-26T11:33:13;32.75;;;16.48;;
29712;SDS011;16623;53.632;10.016;2024-02-26T11:35:39;30.08;;;16.63;;
29712;SDS011;16623;53.632;10.016;2024-02-26T11:38:05;26.92;;;14.82;;
29712;SDS011;16623;53.632;10.016;2024-02-26T11:40:33;21.40;;;9.45;;
29712;SDS011;16623;53.632;10.016;2024-02-26T11:43:03;24.80;;;13.27;;
29712;SDS011;16623;53.632;10.016;2024-02-26T11:48:04;28.48;;;14.63;;
29712;SDS011;16623;53.632;10.016;2024-02-26T11:50:36;25.67;;;14.40;;
29712;SDS011;16623;53.632;10.016;2024-02-26T11:53:45;25.52;;;14.68;;
29712;SDS011;16623;53.632;10.016;2024-02-26T11:58:47;26.88;;;13.70;;
29712;SDS011;16623;53.632;10.016;2024-02-26T12:04:05;22.90;;;13.05;;
29712;SDS011;16623;53.632;10.016;2024-02-26T12:06:39;20.95;;;13.45;;
29712;SDS011;16623;53.632;10.016;2024-02-26T12:09:07;25.08;;;14.45;;
29712;SDS011;16623;53.632;10.016;2024-02-26T12:11:33;24.08;;;13.27;;
29712;SDS011;16623;53.632;10.016;2024-02-26T12:14:03;23.25;;;12.98;;
29712;SDS011;16623;53.632;10.016;2024-02-26T12:16:35;25.80;;;15.43;;
29712;SDS011;16623;53.632;10.016;2024-02-26T12:19:05;28.45;;;16.30;;
29712;SDS011;16623;53.632;10.016;2024-02-26T12:21:33;23.67;;;12.40;;
29712;SDS011;16623;53.632;10.016;2024-02-26T12:24:13;23.95;;;14.10;;
29712;SDS011;16623;53.632;10.016;2024-02-26T12:26:40;24.42;;;13.10;;
29712;SDS011;16623;53.632;10.016;2024-02-26T12:29:06;26.85;;;14.32;;
29712;SDS011;16623;53.632;10.016;2024-02-26T12:31:33;26.25;;;14.60;;
29712;SDS011;16623;53.632;10.016;2024-02-26T12:33:59;24.67;;;13.68;;
29712;SDS011;16623;53.632;10.016;2024-02-26T12:36:25;23.30;;;13.77;;
29712;SDS011;16623;53.632;10.016;2024-02-26T12:38:51;15.70;;;8.35;;
29712;SDS011;16623;53.632;10.016;2024-02-26T12:41:17;23.55;;;12.68;;
29712;SDS011;16623;53.632;10.016;2024-02-26T12:43:43;17.80;;;9.60;;
29712;SDS011;16623;53.632;10.016;2024-02-26T12:46:08;26.30;;;14.38;;
29712;SDS011;16623;53.632;10.016;2024-02-26T12:48:35;18.08;;;8.65;;
29712;SDS011;16623;53.632;10.016;2024-02-26T12:51:01;20.45;;;11.68;;
29712;SDS011;16623;53.632;10.016;2024-02-26T12:53:27;22.02;;;11.45;;
29712;SDS011;16623;53.632;10.016;2024-02-26T12:55:54;22.27;;;13.10;;
29712;SDS011;16623;53.632;10.016;2024-02-26T12:58:20;22.70;;;13.27;;
29712;SDS011;16623;53.632;10.016;2024-02-26T13:00:49;23.08;;;12.40;;
29712;SDS011;16623;53.632;10.016;2024-02-26T13:03:16;23.75;;;12.40;;
29712;SDS011;16623;53.632;10.016;2024-02-26T13:05:42;24.73;;;13.32;;
29712;SDS011;16623;53.632;10.016;2024-02-26T13:08:08;25.45;;;12.88;;
29712;SDS011;16623;53.632;10.016;2024-02-26T13:10:33;23.45;;;12.30;;
29712;SDS011;16623;53.632;10.016;2024-02-26T13:13:01;25.30;;;13.65;;
29712;SDS011;16623;53.632;10.016;2024-02-26T13:15:27;21.73;;;10.60;;
29712;SDS011;16623;53.632;10.016;2024-02-26T13:17:53;24.90;;;13.50;;
29712;SDS011;16623;53.632;10.016;2024-02-26T13:20:39;24.35;;;14.32;;
29712;SDS011;16623;53.632;10.016;2024-02-26T13:23:06;26.40;;;14.57;;
29712;SDS011;16623;53.632;10.016;2024-02-26T13:25:32;26.42;;;13.90;;
29712;SDS011;16623;53.632;10.016;2024-02-26T13:30:34;20.25;;;11.30;;
29712;SDS011;16623;53.632;10.016;2024-02-26T13:33:10;25.55;;;13.52;;
29712;SDS011;16623;53.632;10.016;2024-02-26T13:35:36;28.50;;;13.45;;
29712;SDS011;16623;53.632;10.016;2024-02-26T13:38:04;25.55;;;14.15;;
29712;SDS011;16623;53.632;10.016;2024-02-26T13:40:32;23.45;;;12.73;;
29712;SDS011;16623;53.632;10.016;2024-02-26T13:42:59;25.35;;;13.93;;
29712;SDS011;16623;53.632;10.016;2024-02-26T13:45:25;27.20;;;14.77;;
29712;SDS011;16623;53.632;10.016;2024-02-26T13:47:50;22.63;;;12.60;;
29712;SDS011;16623;53.632;10.016;2024-02-26T13:50:16;20.40;;;12.00;;
29712;SDS011;16623;53.632;10.016;2024-02-26T13:52:46;27.52;;;12.38;;
29712;SDS011;16623;53.632;10.016;2024-02-26T13:55:18;20.40;;;11.75;;
29712;SDS011;16623;53.632;10.016;2024-02-26T13:57:44;24.73;;;12.60;;
29712;SDS011;16623;53.632;10.016;2024-02-26T14:00:10;25.27;;;14.07;;
29712;SDS011;16623;53.632;10.016;2024-02-26T14:02:36;24.05;;;12.98;;
29712;SDS011;16623;53.632;10.016;2024-02-26T14:05:01;24.88;;;13.68;;
29712;SDS011;16623;53.632;10.016;2024-02-26T14:07:29;21.95;;;12.35;;
29712;SDS011;16623;53.632;10.016;2024-02-26T14:09:56;21.10;;;11.68;;
29712;SDS011;16623;53.632;10.016;2024-02-26T14:12:23;21.90;;;11.35;;
29712;SDS011;16623;53.632;10.016;2024-02-26T14:14:48;23.88;;;13.80;;